Time;durP1;ratioP1;P1;durP2;ratioP2;P2;SDS_P1;SDS_P2;PMS_P1;PMS_P2;Temp;Humidity;BMP_temperature;BMP_pressure;BME280_temperature;BME280_humidity;BME280_pressure;Samples;Min_cycle;Max_cycle;Signal;HPM_P1;HPM_P2
2024/02/25 00:01:08;;;;;;;13.63;6.43;;;;;;;11.08;100.00;99790.94;6256416;28;20061;-75
2024/02/25 00:04:09;;;;;;;15.00;5.93;;;;;;;11.13;100.00;99796.66;6267256;28;20056;-75
2024/02/25 00:07:10;;;;;;;9.40;5.68;;;;;;;11.16;100.00;99804.31;6265793;28;20132;-75
2024/02/25 00:10:11;;;;;;;11.13;5.43;;;;;;;11.18;100.00;99807.66;6261637;28;20048;-72
2024/02/25 00:13:12;;;;;;;12.02;6.05;;;;;;;11.19;100.00;99806.69;6265752;28;20060;-72
2024/02/25 00:16:12;;;;;;;10.90;6.63;;;;;;;11.15;100.00;99799.19;6270133;28;20068;-72
2024/02/25 00:19:16;;;;;;;13.40;6.72;;;;;;;11.04;100.00;99787.69;6260719;28;20056;-71
2024/02/25 00:22:16;;;;;;;10.90;5.80;;;;;;;11.04;100.00;99787.69;6265195;28;20052;-72
2024/02/25 00:25:17;;;;;;;13.48;5.80;;;;;;;11.05;100.00;99794.56;6255852;28;20124;-71
2024/02/25 00:28:20;;;;;;;8.80;5.65;;;;;;;11.05;100.00;99791.94;6255988;28;20057;-71
2024/02/25 00:31:21;;;;;;;9.90;4.45;;;;;;;11.06;100.00;99793.63;6246190;28;20048;-71
2024/02/25 00:34:22;;;;;;;12.40;5.75;;;;;;;11.10;100.00;99796.88;6268857;28;20053;-71
2024/02/25 00:37:22;;;;;;;8.10;5.15;;;;;;;11.05;100.00;99789.34;6260648;28;20481;-71
2024/02/25 00:40:25;;;;;;;8.80;5.40;;;;;;;11.02;100.00;99783.50;6261688;28;20060;-71
2024/02/25 00:43:26;;;;;;;8.77;5.20;;;;;;;11.05;100.00;99788.50;6261685;28;20053;-72
2024/02/25 00:46:30;;;;;;;11.88;5.47;;;;;;;11.06;100.00;99792.81;6266169;28;20056;-71
2024/02/25 00:49:30;;;;;;;12.90;5.70;;;;;;;11.04;100.00;99784.25;6252715;28;20042;-71
2024/02/25 00:52:33;;;;;;;12.48;5.90;;;;;;;11.04;100.00;99782.47;6258630;28;20056;-71
2024/02/25 00:55:34;;;;;;;10.65;5.75;;;;;;;11.03;100.00;99780.78;6272440;28;20052;-72
2024/02/25 00:58:35;;;;;;;11.80;5.78;;;;;;;11.01;100.00;99781.81;6265953;28;20486;-75
2024/02/25 01:01:36;;;;;;;10.50;6.10;;;;;;;10.97;100.00;99780.34;6269266;28;20508;-71
2024/02/25 01:04:37;;;;;;;7.65;5.00;;;;;;;10.99;100.00;99773.25;6265972;28;20052;-76
2024/02/25 01:07:38;;;;;;;8.98;5.15;;;;;;;10.98;100.00;99767.22;6267557;28;20136;-75
2024/02/25 01:10:41;;;;;;;9.43;5.75;;;;;;;10.95;100.00;99761.34;6256602;28;20077;-75
2024/02/25 01:13:42;;;;;;;11.27;5.60;;;;;;;10.97;100.00;99772.53;6249523;28;20060;-75
2024/02/25 01:16:43;;;;;;;9.65;5.80;;;;;;;10.97;100.00;99772.53;6261345;28;20060;-71
2024/02/25 01:19:46;;;;;;;9.15;5.47;;;;;;;10.94;100.00;99770.13;6263097;28;20130;-75
2024/02/25 01:22:47;;;;;;;8.07;5.00;;;;;;;10.94;100.00;99770.97;6252534;28;20532;-75
2024/02/25 01:25:48;;;;;;;8.25;5.38;;;;;;;10.97;100.00;99773.34;6253550;28;20037;-75
2024/02/25 01:28:48;;;;;;;10.82;5.75;;;;;;;11.01;100.00;99779.22;6246417;28;20057;-75
2024/02/25 01:31:52;;;;;;;7.70;5.18;;;;;;;11.01;100.00;99776.59;6261441;28;20052;-75
2024/02/25 01:34:53;;;;;;;9.57;5.82;;;;;;;10.99;100.00;99774.09;6257934;28;20065;-71
2024/02/25 01:37:54;;;;;;;10.60;5.80;;;;;;;10.94;100.00;99765.75;6250209;28;20148;-76
2024/02/25 01:40:54;;;;;;;11.20;5.75;;;;;;;10.88;100.00;99766.97;6248889;28;20132;-75
2024/02/25 01:43:57;;;;;;;12.02;5.50;;;;;;;10.89;100.00;99768.66;6249967;28;20049;-75
2024/02/25 01:46:58;;;;;;;7.95;5.18;;;;;;;10.86;100.00;99765.41;6254706;28;20060;-72
2024/02/25 01:49:59;;;;;;;9.80;5.55;;;;;;;10.88;100.00;99771.38;6248958;28;20486;-75
2024/02/25 01:53:01;;;;;;;9.65;5.30;;;;;;;10.85;100.00;99758.50;6248371;28;20064;-75
2024/02/25 01:56:02;;;;;;;;;;;;;;;10.83;100.00;99752.56;6253771;28;20068;-75
2024/02/25 01:59:03;;;;;;;9.23;5.57;;;;;;;10.78;100.00;99744.22;6247517;28;19924;-75
2024/02/25 02:02:13;;;;;;;9.50;5.60;;;;;;;10.76;100.00;99754.75;6248949;28;20061;-75
2024/02/25 02:05:13;;;;;;;8.38;5.28;;;;;;;10.75;100.00;99760.91;6251072;28;20448;-75
2024/02/25 02:08:14;;;;;;;10.02;6.00;;;;;;;10.70;100.00;99755.16;6242509;28;20057;-75
2024/02/25 02:11:17;;;;;;;9.20;5.05;;;;;;;10.70;100.00;99768.19;6248326;28;20132;-71
2024/02/25 02:14:20;;;;;;;7.63;4.93;;;;;;;10.65;100.00;99762.47;6252863;28;20049;-75
2024/02/25 02:17:23;;;;;;;10.35;5.32;;;;;;;10.64;100.00;99766.00;6272689;28;20171;-75
2024/02/25 02:20:28;;;;;;;9.32;5.32;;;;;;;10.57;100.00;99751.69;6256440;28;20521;-75
2024/02/25 02:23:32;;;;;;;9.68;5.68;;;;;;;10.49;100.00;99760.84;6251229;28;20085;-75
2024/02/25 02:26:32;;;;;;;8.80;5.13;;;;;;;10.52;100.00;99759.81;6248942;28;20052;-71
2024/02/25 02:29:33;;;;;;;15.25;6.97;;;;;;;10.47;100.00;99770.53;6248306;28;20050;-71
2024/02/25 02:32:35;;;;;;;10.65;6.03;;;;;;;10.52;100.00;99772.84;6247345;28;20057;-71
2024/02/25 02:35:36;;;;;;;9.70;5.88;;;;;;;10.52;100.00;99766.78;6245834;28;20052;-71
2024/02/25 02:38:37;;;;;;;11.63;6.60;;;;;;;10.55;100.00;99774.44;6251261;28;20045;-71
2024/02/25 02:41:38;;;;;;;13.37;7.43;;;;;;;10.56;100.00;99776.94;6255473;28;20045;-72
2024/02/25 02:44:39;;;;;;;13.10;6.72;;;;;;;10.58;100.00;99776.84;6260511;28;20076;-71
2024/02/25 02:47:40;;;;;;;11.32;7.40;;;;;;;10.55;100.00;99775.28;6259291;28;20460;-71
2024/02/25 02:50:40;;;;;;;11.88;7.10;;;;;;;10.54;100.00;99773.56;6255486;28;20049;-72
2024/02/25 02:53:42;;;;;;;11.32;6.55;;;;;;;10.55;100.00;99782.25;6272058;28;20131;-75
2024/02/25 02:56:43;;;;;;;12.65;6.72;;;;;;;10.54;100.00;99783.19;6268425;28;20182;-76
2024/02/25 02:59:44;;;;;;;10.07;6.30;;;;;;;10.54;100.00;99780.56;6261367;28;20049;-72
2024/02/25 03:02:45;;;;;;;10.55;5.47;;;;;;;10.47;100.00;99785.38;6246563;28;20564;-75
2024/02/25 03:05:45;;;;;;;10.15;5.72;;;;;;;10.47;100.00;99780.97;6254798;28;20049;-75
2024/02/25 03:08:46;;;;;;;9.13;5.78;;;;;;;10.43;100.00;99781.28;6252293;28;20076;-76
2024/02/25 03:11:47;;;;;;;12.23;6.65;;;;;;;10.42;100.00;99771.81;6258547;28;20136;-76
2024/02/25 03:14:48;;;;;;;11.25;5.88;;;;;;;10.41;100.00;99762.28;6261963;28;20441;-71
2024/02/25 03:17:49;;;;;;;9.23;5.18;;;;;;;10.40;100.00;99773.66;6247033;28;20049;-72
2024/02/25 03:20:49;;;;;;;9.25;5.50;;;;;;;10.43;100.00;99771.69;6270843;28;20106;-75
2024/02/25 03:23:52;;;;;;;8.88;5.95;;;;;;;10.48;100.00;99774.84;6252976;28;20425;-71
2024/02/25 03:26:53;;;;;;;11.23;6.18;;;;;;;10.45;100.00;99768.97;6253979;28;20084;-75
2024/02/25 03:29:54;;;;;;;8.27;5.10;;;;;;;10.46;100.00;99783.72;6262007;28;20072;-75
2024/02/25 03:33:00;;;;;;;13.10;5.88;;;;;;;10.35;100.00;99776.56;6256036;28;20136;-72
2024/02/25 03:36:01;;;;;;;10.82;6.28;;;;;;;10.38;100.00;99780.75;6251651;28;20045;-72
2024/02/25 03:39:04;;;;;;;17.20;6.22;;;;;;;10.30;100.00;99785.63;6256691;28;20049;-76
2024/02/25 03:42:04;;;;;;;9.85;5.93;;;;;;;10.32;100.00;99788.97;6262011;28;20053;-75
2024/02/25 03:45:08;;;;;;;8.35;5.10;;;;;;;10.32;100.00;99791.59;6265697;28;20083;-71
2024/02/25 03:48:09;;;;;;;9.88;5.63;;;;;;;10.27;100.00;99791.81;6263585;28;20497;-71
2024/02/25 03:51:10;;;;;;;14.50;6.57;;;;;;;10.26;100.00;99780.56;6252624;28;20061;-71
2024/02/25 03:54:11;;;;;;;13.07;6.22;;;;;;;10.27;100.00;99781.38;6251007;28;20156;-71
2024/02/25 03:57:12;;;;;;;10.48;6.53;;;;;;;10.35;100.00;99783.53;6249410;28;20484;-71
2024/02/25 04:00:13;;;;;;;11.20;6.53;;;;;;;10.36;100.00;99780.84;6263321;28;20048;-76
2024/02/25 04:03:14;;;;;;;20.25;9.13;;;;;;;10.36;100.00;99785.22;6264661;28;20065;-75
2024/02/25 04:06:15;;;;;;;33.05;15.15;;;;;;;10.42;100.00;99788.28;6249098;28;20095;-76
2024/02/25 04:09:17;;;;;;;30.15;15.32;;;;;;;10.47;100.00;99782.75;6284961;28;20485;-76
2024/02/25 04:12:17;;;;;;;43.88;18.38;;;;;;;10.48;100.00;99782.66;6257438;28;20048;-76
2024/02/25 04:15:18;;;;;;;46.33;21.58;;;;;;;10.43;100.00;99782.09;6247834;28;20064;-75
2024/02/25 04:18:19;;;;;;;46.92;19.75;;;;;;;10.44;100.00;99780.38;6248884;28;20148;-75
2024/02/25 04:21:20;;;;;;;44.33;18.48;;;;;;;10.43;100.00;99784.72;6260422;28;20080;-75
2024/02/25 04:24:20;;;;;;;45.15;19.85;;;;;;;10.40;100.00;99782.31;6258451;28;20080;-75
2024/02/25 04:27:21;;;;;;;38.13;16.60;;;;;;;10.40;100.00;99784.94;6249051;28;21403;-75
2024/02/25 04:30:25;;;;;;;34.13;16.10;;;;;;;10.40;100.00;99779.72;6254334;28;20053;-75
2024/02/25 04:33:28;;;;;;;23.67;12.85;;;;;;;10.40;100.00;99779.72;6261232;28;20057;-75
2024/02/25 04:36:28;;;;;;;25.08;12.52;;;;;;;10.43;100.00;99786.50;6265659;28;20075;-75
2024/02/25 04:39:32;;;;;;;23.77;14.00;;;;;;;10.46;100.00;99787.16;6258035;28;20057;-72
2024/02/25 04:42:33;;;;;;;27.35;13.57;;;;;;;10.43;100.00;99782.09;6265781;28;20084;-72
2024/02/25 04:45:34;;;;;;;19.30;11.05;;;;;;;10.45;100.00;99780.25;6253964;28;20054;-71
2024/02/25 04:48:37;;;;;;;16.38;9.38;;;;;;;10.47;100.00;99777.53;6254755;28;20265;-75
2024/02/25 04:51:38;;;;;;;21.25;11.07;;;;;;;10.48;100.00;99774.84;6247877;28;20053;-75
2024/02/25 04:54:40;;;;;;;20.63;10.80;;;;;;;10.46;100.00;99773.28;6258497;28;20049;-75
2024/02/25 04:57:43;;;;;;;15.48;8.60;;;;;;;10.45;100.00;99767.19;6252996;28;20465;-75
2024/02/25 05:00:44;;;;;;;12.95;7.68;;;;;;;10.22;100.00;99770.44;6254483;28;20049;-75
2024/02/25 05:03:45;;;;;;;14.40;7.10;;;;;;;10.33;100.00;99770.59;6259684;28;20057;-71
2024/02/25 05:06:46;;;;;;;12.93;7.53;;;;;;;10.32;100.00;99770.72;6249264;28;20102;-75
2024/02/25 05:09:47;;;;;;;14.00;7.35;;;;;;;10.31;100.00;99769.88;6253481;28;20048;-72
2024/02/25 05:12:50;;;;;;;12.07;7.73;;;;;;;10.26;100.00;99771.91;6267338;28;20417;-75
2024/02/25 05:15:51;;;;;;;14.65;8.75;;;;;;;10.28;100.00;99776.09;6262169;28;20051;-75
2024/02/25 05:18:53;;;;;;;16.90;8.02;;;;;;;10.30;100.00;99775.19;6250888;28;20050;-75
2024/02/25 05:21:53;;;;;;;10.93;6.82;;;;;;;10.28;100.00;99783.91;6251183;28;20072;-72
2024/02/25 05:24:54;;;;;;;19.13;10.27;;;;;;;10.25;100.00;99793.69;6248176;28;20053;-72
2024/02/25 05:27:55;;;;;;;18.98;11.75;;;;;;;10.19;100.00;99794.94;6246200;28;20063;-72
2024/02/25 05:30:56;;;;;;;15.23;9.00;;;;;;;10.14;100.00;99801.38;6243459;28;20052;-72
2024/02/25 05:33:56;;;;;;;15.45;8.70;;;;;;;10.11;100.00;99812.84;6256997;28;20482;-75
2024/02/25 05:36:57;;;;;;;15.32;7.57;;;;;;;10.15;100.00;99811.72;6265264;28;20041;-72
2024/02/25 05:39:59;;;;;;;11.20;7.43;;;;;;;10.12;100.00;99817.09;6253929;28;20057;-72
2024/02/25 05:42:59;;;;;;;12.02;6.93;;;;;;;10.08;100.00;99815.63;6248806;28;20049;-75
2024/02/25 05:46:00;;;;;;;11.68;6.43;;;;;;;10.12;100.00;99814.50;6246974;28;20125;-72
2024/02/25 05:49:01;;;;;;;11.15;6.22;;;;;;;10.17;100.00;99822.88;6249061;28;20050;-75
2024/02/25 05:52:05;;;;;;;13.38;6.45;;;;;;;10.07;100.00;99819.19;6257163;28;20521;-75
2024/02/25 05:55:08;;;;;;;11.63;7.05;;;;;;;10.12;100.00;99827.53;6248601;28;20045;-71
2024/02/25 05:58:08;;;;;;;10.38;6.20;;;;;;;10.18;100.00;99827.16;6246989;28;20057;-72
2024/02/25 06:01:11;;;;;;;13.23;6.65;;;;;;;10.13;100.00;99828.34;6248243;28;20139;-71
2024/02/25 06:04:16;;;;;;;10.55;6.80;;;;;;;10.14;100.00;99836.09;6249033;28;20510;-72
2024/02/25 06:07:17;;;;;;;15.20;7.43;;;;;;;10.15;100.00;99834.31;6281023;28;20053;-71
2024/02/25 06:10:18;;;;;;;10.18;6.65;;;;;;;10.19;100.00;99846.22;6259946;28;20111;-75
2024/02/25 06:13:19;;;;;;;15.82;8.25;;;;;;;10.26;100.00;99842.31;6253712;28;20572;-75
2024/02/25 06:16:22;;;;;;;18.48;8.80;;;;;;;10.14;100.00;99846.53;6272569;28;20045;-75
2024/02/25 06:19:25;;;;;;;20.23;12.20;;;;;;;10.21;100.00;99842.63;6268087;28;20139;-75
2024/02/25 06:22:29;;;;;;;17.48;10.38;;;;;;;10.27;100.00;99849.19;6273429;28;20056;-75
2024/02/25 06:25:32;;;;;;;33.80;16.02;;;;;;;10.39;100.00;99848.44;6267582;28;20049;-75
2024/02/25 06:28:36;;;;;;;17.13;9.85;;;;;;;10.55;100.00;99850.09;6258963;28;20041;-75
2024/02/25 06:31:37;;;;;;;14.10;7.57;;;;;;;10.61;100.00;99847.09;6248039;28;20049;-75
2024/02/25 06:34:41;;;;;;;12.88;7.50;;;;;;;10.66;100.00;99863.28;6256234;28;20045;-75
2024/02/25 06:37:42;;;;;;;12.10;7.63;;;;;;;10.71;100.00;99862.97;6258770;28;20526;-75
2024/02/25 06:40:42;;;;;;;12.93;8.38;;;;;;;10.72;100.00;99865.50;6264371;28;20077;-75
2024/02/25 06:43:43;;;;;;;13.30;7.90;;;;;;;10.77;100.00;99865.19;6256220;28;20076;-75
2024/02/25 06:46:46;;;;;;;15.18;8.70;;;;;;;10.80;100.00;99870.22;6263091;28;20401;-74
2024/02/25 06:49:47;;;;;;;17.90;9.57;;;;;;;10.83;100.00;99870.00;6251216;28;20045;-75
2024/02/25 06:52:48;;;;;;;13.43;8.60;;;;;;;10.91;100.00;99859.06;6272372;28;20507;-75
2024/02/25 06:55:49;;;;;;;14.30;8.82;;;;;;;10.80;100.00;99865.00;6252980;28;20537;-75
2024/02/25 06:58:50;;;;;;;14.65;8.52;;;;;;;10.92;100.00;99861.59;6255582;28;20053;-75
2024/02/25 07:01:51;;;;;;;15.68;9.20;;;;;;;10.93;100.00;99862.41;6261314;28;20136;-71
2024/02/25 07:04:52;;;;;;;17.75;11.10;;;;;;;11.07;100.00;99855.34;6264901;28;20492;-75
2024/02/25 07:07:56;;;;;;;17.83;9.25;;;;;;;11.11;100.00;99850.75;6265473;28;20083;-74
2024/02/25 07:10:57;;;;;;;22.92;9.70;;;;;;;11.18;100.00;99857.28;6247417;28;20496;-75
2024/02/25 07:14:01;;;;;;;21.75;12.50;;;;;;;11.10;100.00;99859.56;6249518;28;20056;-75
2024/02/25 07:17:02;;;;;;;16.63;10.27;;;;;;;11.03;100.00;99859.09;6262453;28;20099;-75
2024/02/25 07:20:03;;;;;;;17.70;10.95;;;;;;;11.07;100.00;99857.97;6262019;28;20052;-75
2024/02/25 07:23:04;;;;;;;20.93;11.43;;;;;;;11.11;100.00;99863.00;6251908;28;20140;-72
2024/02/25 07:26:06;;;;;;;22.92;11.55;;;;;;;11.13;100.00;99858.50;6267168;28;20060;-75
2024/02/25 07:29:07;;;;;;;18.67;12.20;;;;;;;11.17;100.00;99852.97;6259577;28;20072;-72
2024/02/25 07:32:10;;;;;;;17.85;11.05;;;;;;;11.16;100.00;99861.75;6249569;28;20111;-75
2024/02/25 07:35:13;;;;;;;16.30;10.32;;;;;;;11.29;100.00;99856.53;6256306;28;20056;-72
2024/02/25 07:38:15;;;;;;;19.67;9.18;;;;;;;11.38;100.00;99858.53;6251484;28;20475;-72
2024/02/25 07:41:15;;;;;;;17.05;8.50;;;;;;;11.49;100.00;99861.25;6255753;28;20045;-72
2024/02/25 07:44:18;;;;;;;12.15;8.07;;;;;;;11.52;100.00;99857.59;6268054;28;20057;-72
2024/02/25 07:47:20;;;;;;;13.77;8.55;;;;;;;11.56;100.00;99861.66;6269233;28;20061;-75
2024/02/25 07:50:20;;;;;;;17.73;9.95;;;;;;;11.54;100.00;99857.50;6256665;28;20471;-75
2024/02/25 07:53:21;;;;;;;19.73;10.57;;;;;;;11.52;100.00;99859.38;6251640;28;20068;-75
2024/02/25 07:56:24;;;;;;;23.27;12.77;;;;;;;11.63;100.00;99859.47;6260837;28;20043;-75
2024/02/25 07:59:27;;;;;;;19.63;10.80;;;;;;;11.70;100.00;99865.97;6270216;28;20426;-75
2024/02/25 08:02:28;;;;;;;23.88;11.63;;;;;;;11.64;100.00;99867.22;6257988;28;20049;-75
2024/02/25 08:05:29;;;;;;;19.65;12.48;;;;;;;11.69;100.00;99865.13;6266340;28;20456;-75
2024/02/25 08:08:32;;;;;;;23.45;11.88;;;;;;;11.63;100.00;99862.09;6271582;28;20053;-75
2024/02/25 08:11:33;;;;;;;23.08;11.93;;;;;;;11.64;100.00;99858.53;6259947;28;20056;-75
2024/02/25 08:14:36;;;;;;;21.88;11.93;;;;;;;11.64;100.00;99856.75;6270138;28;20106;-75
2024/02/25 08:17:37;;;;;;;23.45;14.15;;;;;;;11.78;100.00;99858.44;6271548;28;20048;-75
2024/02/25 08:20:38;;;;;;;21.73;13.63;;;;;;;11.87;100.00;99852.56;6259518;28;20053;-75
2024/02/25 08:23:43;;;;;;;20.52;13.15;;;;;;;11.95;100.00;99848.63;6270947;28;20608;-75
2024/02/25 08:26:44;;;;;;;16.17;9.73;;;;;;;11.97;100.00;99855.41;6259923;28;20041;-75
2024/02/25 08:29:45;;;;;;;22.40;12.50;;;;;;;12.00;100.00;99846.50;6261780;28;20049;-75
2024/02/25 08:32:46;;;;;;;18.30;11.10;;;;;;;12.02;100.00;99834.16;6258404;28;20064;-75
2024/02/25 08:35:46;;;;;;;15.55;9.70;;;;;;;12.17;100.00;99827.00;6258658;28;20164;-75
2024/02/25 08:38:48;;;;;;;19.83;10.23;;;;;;;12.07;100.00;99821.59;6266190;28;20045;-75
2024/02/25 08:41:51;;;;;;;18.15;9.32;;;;;;;11.96;100.00;99824.13;6265125;28;20056;-75
2024/02/25 08:44:51;;;;;;;15.98;9.45;;;;;;;12.15;100.00;99828.88;6269699;28;20386;-75
2024/02/25 08:47:52;;;;;;;15.50;9.68;;;;;;;12.22;100.00;99828.34;6269977;28;20084;-75
2024/02/25 08:50:53;;;;;;;24.20;12.30;;;;;;;12.34;100.00;99836.28;6252921;28;20501;-72
2024/02/25 08:53:54;;;;;;;22.45;11.52;;;;;;;12.61;100.00;99836.06;6245078;28;20049;-75
2024/02/25 08:56:55;;;;;;;16.92;9.05;;;;;;;12.61;100.00;99825.59;6244908;28;20133;-72
2024/02/25 08:59:58;;;;;;;16.85;9.18;;;;;;;12.65;100.00;99835.72;6246244;28;20064;-72
2024/02/25 09:03:02;;;;;;;15.48;7.90;;;;;;;12.58;100.00;99829.25;6245892;28;20103;-74
2024/02/25 09:06:04;;;;;;;15.32;7.72;;;;;;;12.60;100.00;99818.66;6246342;28;20049;-75
2024/02/25 09:09:04;;;;;;;13.65;8.27;;;;;;;12.56;100.00;99822.44;6246066;28;20126;-75
2024/02/25 09:12:13;;;;;;;17.30;9.52;;;;;;;12.67;100.00;99825.13;6245868;28;20053;-71
2024/02/25 09:15:17;;;;;;;13.90;7.95;;;;;;;12.70;100.00;99819.66;6254787;28;20044;-75
2024/02/25 09:18:18;;;;;;;16.35;8.85;;;;;;;12.67;100.00;99814.66;6274491;28;20059;-74
2024/02/25 09:21:19;;;;;;;13.95;9.63;;;;;;;12.76;100.00;99819.22;6275236;28;20053;-75
2024/02/25 09:24:19;;;;;;;19.08;10.02;;;;;;;12.89;100.00;99808.69;6274366;28;20076;-75
2024/02/25 09:27:20;;;;;;;16.48;10.38;;;;;;;12.88;100.00;99820.09;6275322;28;20052;-75
2024/02/25 09:30:23;;;;;;;25.23;10.50;;;;;;;12.91;100.00;99801.56;6275032;28;20103;-75
2024/02/25 09:33:29;;;;;;;15.18;9.38;;;;;;;13.17;100.00;99817.06;6275054;28;20071;-75
2024/02/25 09:36:30;;;;;;;19.42;11.63;;;;;;;13.23;100.00;99806.97;6274952;28;20091;-75
2024/02/25 09:39:31;;;;;;;17.73;11.30;;;;;;;13.16;100.00;99800.53;6261870;28;20061;-75
2024/02/25 09:42:35;;;;;;;21.83;11.40;;;;;;;13.29;100.00;99798.66;6248855;28;20045;-71
2024/02/25 09:45:40;;;;;;;25.42;14.02;;;;;;;13.56;100.00;99807.16;6249051;28;20091;-71
2024/02/25 09:48:42;;;;;;;17.00;10.50;;;;;;;13.66;100.00;99805.50;6250326;28;20563;-75
2024/02/25 09:51:48;;;;;;;13.60;9.20;;;;;;;13.76;100.00;99809.06;6248963;28;20049;-72
2024/02/25 09:54:49;;;;;;;18.95;11.95;;;;;;;13.78;100.00;99807.16;6255085;28;20068;-75
2024/02/25 09:57:50;;;;;;;14.88;10.00;;;;;;;13.84;100.00;99800.59;6267911;28;20095;-75
2024/02/25 10:00:51;;;;;;;27.73;14.95;;;;;;;13.88;100.00;99800.22;6249431;28;20413;-71
2024/02/25 10:03:51;;;;;;;24.88;12.02;;;;;;;13.86;100.00;99801.31;6248639;28;20087;-71
2024/02/25 10:06:57;;;;;;;20.55;11.57;;;;;;;13.92;100.00;99792.97;6249585;28;20514;-71
2024/02/25 10:09:58;;;;;;;27.95;13.75;;;;;;;13.70;100.00;99791.19;6260817;28;20053;-71
2024/02/25 10:13:03;;;;;;;17.08;12.05;;;;;;;13.97;100.00;99793.41;6274254;28;20072;-71
2024/02/25 10:16:04;;;;;;;19.40;10.98;;;;;;;14.09;100.00;99779.31;6272825;28;20091;-71
2024/02/25 10:19:07;;;;;;;21.10;10.73;;;;;;;13.93;100.00;99768.38;6273029;28;20468;-75
2024/02/25 10:22:10;;;;;;;18.67;11.52;;;;;;;14.12;100.00;99770.38;6273909;28;20049;-71
2024/02/25 10:25:11;;;;;;;16.38;10.60;;;;;;;14.06;100.00;99774.34;6273988;28;20059;-71
2024/02/25 10:28:17;;;;;;;14.27;9.55;;;;;;;14.35;100.00;99751.94;6271401;28;20049;-70
2024/02/25 10:31:17;;;;;;;17.73;9.85;;;;;;;14.86;100.00;99746.00;6273925;28;20520;-71
2024/02/25 10:34:18;;;;;;;16.73;9.18;;;;;;;15.08;100.00;99732.72;6266432;28;20053;-75
2024/02/25 10:37:24;;;;;;;14.38;8.43;;;;;;;15.16;100.00;99721.56;6269478;28;20045;-75
2024/02/25 10:40:25;;;;;;;17.75;8.77;;;;;;;15.17;100.00;99720.56;6270882;28;20052;-71
2024/02/25 10:43:27;;;;;;;18.20;9.65;;;;;;;15.49;100.00;99711.72;6265246;28;20474;-71
2024/02/25 10:46:44;;;;;;;15.00;7.68;;;;;;;15.94;100.00;99710.47;6262135;28;20041;-71
2024/02/25 10:49:46;;;;;;;14.43;7.28;;;;;;;15.91;100.00;99699.25;6272341;28;20049;-71
2024/02/25 10:52:50;;;;;;;11.60;7.18;;;;;;;16.28;100.00;99695.94;6272095;28;20045;-71
2024/02/25 10:55:52;;;;;;;11.88;6.57;;;;;;;16.10;100.00;99689.69;6273439;28;20049;-71
2024/02/25 10:58:56;;;;;;;13.52;7.90;;;;;;;16.13;100.00;99688.63;6272093;28;20049;-70
2024/02/25 11:01:59;;;;;;;9.48;6.20;;;;;;;16.20;100.00;99676.56;6272900;28;20496;-71
2024/02/25 11:05:00;;;;;;;8.07;4.55;;;;;;;16.16;98.56;99669.91;6273050;28;20183;-71
2024/02/25 11:08:01;;;;;;;5.88;4.03;;;;;;;16.18;97.35;99654.81;6271626;28;20045;-72
2024/02/25 11:11:12;;;;;;;6.22;3.90;;;;;;;15.80;99.04;99656.47;6255417;28;20053;-71
2024/02/25 11:14:16;;;;;;;9.02;6.18;;;;;;;15.85;98.38;99652.44;6247873;28;20115;-71
2024/02/25 11:17:24;;;;;;;10.30;7.90;;;;;;;15.75;96.21;99650.75;6248783;28;20144;-75
2024/02/25 11:20:28;;;;;;;8.77;6.50;;;;;;;16.10;97.61;99647.59;6272507;28;20053;-71
2024/02/25 11:23:43;;;;;;;8.73;5.80;;;;;;;16.21;95.83;99641.38;6270771;28;20136;-70
2024/02/25 11:26:44;;;;;;;7.63;4.68;;;;;;;16.05;96.51;99639.31;6260440;28;20095;-75
2024/02/25 11:29:45;;;;;;;6.07;3.85;;;;;;;16.41;94.31;99643.03;6259283;28;20053;-75
2024/02/25 11:32:48;;;;;;;5.47;3.72;;;;;;;16.33;93.83;99645.53;6247419;28;20050;-75
2024/02/25 11:35:50;;;;;;;6.68;4.13;;;;;;;16.33;91.77;99635.00;6272091;28;20056;-75
2024/02/25 11:38:55;;;;;;;7.90;5.28;;;;;;;16.38;90.00;99634.56;6271924;28;20432;-75
2024/02/25 11:42:04;;;;;;;6.70;4.00;;;;;;;16.47;90.01;99623.16;6272626;28;20068;-75
2024/02/25 11:45:07;;;;;;;7.70;4.13;;;;;;;16.29;88.66;99617.81;6270790;28;20139;-75
2024/02/25 11:48:08;;;;;;;8.38;4.15;;;;;;;16.52;89.27;99610.41;6272135;28;20056;-70
2024/02/25 11:51:09;;;;;;;9.60;4.20;;;;;;;16.36;88.24;99613.63;6270842;28;20049;-70
2024/02/25 11:54:11;;;;;;;10.18;4.80;;;;;;;16.87;89.43;99617.69;6271888;28;20052;-70
2024/02/25 11:57:12;;;;;;;5.07;3.20;;;;;;;16.94;86.48;99612.66;6263911;28;20057;-70
2024/02/25 12:00:13;;;;;;;7.70;4.07;;;;;;;16.63;84.75;99601.50;6245679;28;20111;-70
2024/02/25 12:03:14;;;;;;;8.10;3.80;;;;;;;16.99;86.39;99604.34;6259309;28;20574;-70
2024/02/25 12:06:17;;;;;;;9.05;4.18;;;;;;;17.08;86.66;99596.34;6291614;28;20040;-69
2024/02/25 12:09:24;;;;;;;6.65;3.60;;;;;;;16.98;83.84;99595.56;6252319;28;20049;-70
2024/02/25 12:12:25;;;;;;;6.78;3.75;;;;;;;17.20;83.13;99583.00;6260189;28;20178;-70
2024/02/25 12:15:28;;;;;;;8.00;3.83;;;;;;;16.91;81.01;99587.44;6271440;28;20504;-70
2024/02/25 12:18:29;;;;;;;6.38;4.13;;;;;;;16.57;80.89;99581.84;6267083;28;20107;-70
2024/02/25 12:21:29;;;;;;;7.60;4.38;;;;;;;16.34;83.23;99584.00;6260506;28;20493;-70
2024/02/25 12:24:30;;;;;;;8.15;4.15;;;;;;;16.71;84.04;99588.44;6248062;28;20041;-71
2024/02/25 12:27:31;;;;;;;8.02;4.38;;;;;;;16.78;83.06;99584.28;6269480;28;20132;-70
2024/02/25 12:30:35;;;;;;;7.93;4.18;;;;;;;16.62;83.34;99584.06;6259177;28;20041;-70
2024/02/25 12:33:35;;;;;;;11.55;5.22;;;;;;;16.72;84.09;99579.59;6255053;28;20591;-70
2024/02/25 12:36:37;;;;;;;7.00;4.43;;;;;;;16.43;83.97;99582.28;6245400;28;20054;-70
2024/02/25 12:39:41;;;;;;;9.57;4.85;;;;;;;16.38;84.38;99582.72;6257392;28;20049;-70
2024/02/25 12:42:48;;;;;;;7.65;4.15;;;;;;;16.60;82.17;99571.03;6245405;28;20102;-70
2024/02/25 12:45:49;;;;;;;10.15;4.78;;;;;;;16.67;83.70;99569.47;6244965;28;20402;-71
2024/02/25 12:48:55;;;;;;;8.40;4.50;;;;;;;16.81;83.39;99562.94;6252846;28;20049;-70
2024/02/25 12:51:56;;;;;;;9.25;4.85;;;;;;;17.07;81.64;99541.16;6261640;28;20053;-71
2024/02/25 12:54:57;;;;;;;6.93;4.22;;;;;;;16.89;80.36;99552.50;6250047;28;20478;-70
2024/02/25 12:58:03;;;;;;;6.68;4.05;;;;;;;16.78;80.77;99549.19;6251848;28;20143;-71
2024/02/25 13:01:04;;;;;;;5.80;3.92;;;;;;;16.85;79.65;99545.84;6270565;28;20500;-70
2024/02/25 13:04:05;;;;;;;7.28;4.63;;;;;;;16.83;81.60;99560.16;6271671;28;20053;-70
2024/02/25 13:07:08;;;;;;;7.53;4.65;;;;;;;17.02;80.35;99549.50;6273966;28;20135;-71
2024/02/25 13:10:10;;;;;;;6.90;4.28;;;;;;;16.82;80.14;99555.84;6271762;28;20053;-70
2024/02/25 13:13:11;;;;;;;7.40;4.18;;;;;;;16.44;79.09;99542.66;6273077;28;20485;-70
2024/02/25 13:16:12;;;;;;;7.07;4.35;;;;;;;16.70;79.76;99540.22;6274412;28;20087;-70
2024/02/25 13:19:12;;;;;;;8.50;4.80;;;;;;;16.97;79.64;99535.13;6274177;28;20045;-70
2024/02/25 13:22:13;;;;;;;11.45;5.70;;;;;;;16.95;79.15;99542.34;6275555;28;20135;-70
2024/02/25 13:25:16;;;;;;;7.88;4.40;;;;;;;16.77;79.67;99539.63;6275261;28;20049;-70
2024/02/25 13:28:17;;;;;;;9.00;4.47;;;;;;;16.82;80.66;99542.69;6275469;28;20087;-69
2024/02/25 13:31:18;;;;;;;8.43;4.90;;;;;;;17.02;79.91;99527.59;6274038;28;20059;-70
2024/02/25 13:34:19;;;;;;;7.90;4.53;;;;;;;17.18;79.67;99519.06;6274140;28;20080;-70
2024/02/25 13:37:19;;;;;;;9.30;5.20;;;;;;;17.58;79.30;99508.03;6275096;28;20051;-69
2024/02/25 13:40:20;;;;;;;10.95;5.38;;;;;;;17.48;79.85;99505.50;6259363;28;20524;-71
2024/02/25 13:43:21;;;;;;;11.15;5.40;;;;;;;17.17;78.03;99506.84;6263384;28;20041;-70
2024/02/25 13:46:24;;;;;;;18.58;6.13;;;;;;;16.91;77.93;99502.28;6253876;28;20413;-71
2024/02/25 13:49:25;;;;;;;8.90;4.97;;;;;;;16.85;78.12;99494.97;6272693;28;20269;-71
2024/02/25 13:52:26;;;;;;;11.10;4.68;;;;;;;17.11;78.36;99502.97;6271991;28;20048;-71
2024/02/25 13:55:27;;;;;;;10.48;4.78;;;;;;;17.07;78.39;99494.56;6273138;28;20074;-71
2024/02/25 13:58:28;;;;;;;10.32;5.00;;;;;;;17.01;78.82;99496.97;6274271;28;20052;-73